K1YT

Yagabond Aaf

Yagabond Aaf, Washington, USA
METAR K1YT 161758Z AUTO 00000KT 10SM OVC049 00/M04 A2996 RMK AO2 SLPNO T10051045 11005 21046 52006 $
Observed Flight Rules
Jan-16 @ 17:58 UTC (an hour ago) Visual Flight Rules
Visibility Clouds
10 miles
  • Overcast at 4,900' AGL
Temperatures Readings
Current -1°C / 30°F
Dewpoint -5°C / 23°F
Humidity 75%
Altimeter 29.96" Hg
Pressure 1014.52 hPa
Elevation 438
METAR K1YT 161758Z AUTO 00000KT 10SM OVC049 00/M04 A2996 RMK AO2 SLPNO T10051045 11005 21046 52006 $
Observed Flight Rules
Jan-16 @ 17:58 UTC
(an hour ago)
VFR
Clouds
  • Overcast at 4,900' AGL
Temperature Dewpoint
-1°C / 30°F -5°C / 23°F
Humidity Altimeter Pressure
75% 29.96" Hg 1014.52 hPa